sensor_id;sensor_type;location;lat;lon;timestamp;P1;durP1;ratioP1;P2;durP2;ratioP2
23680;SDS011;62915;50.832;4.462;2023-02-11T00:00:53;19.75;;;9.65;;
23680;SDS011;62915;50.832;4.462;2023-02-11T00:03:19;17.83;;;10.25;;
23680;SDS011;62915;50.832;4.462;2023-02-11T00:05:45;20.40;;;9.60;;
23680;SDS011;62915;50.832;4.462;2023-02-11T00:08:10;15.63;;;9.18;;
23680;SDS011;62915;50.832;4.462;2023-02-11T00:10:41;17.85;;;9.25;;
23680;SDS011;62915;50.832;4.462;2023-02-11T00:13:06;23.10;;;9.50;;
23680;SDS011;62915;50.832;4.462;2023-02-11T00:15:32;20.27;;;9.15;;
23680;SDS011;62915;50.832;4.462;2023-02-11T00:17:58;16.75;;;9.05;;
23680;SDS011;62915;50.832;4.462;2023-02-11T00:20:23;18.75;;;8.52;;
23680;SDS011;62915;50.832;4.462;2023-02-11T00:22:49;18.60;;;8.45;;
23680;SDS011;62915;50.832;4.462;2023-02-11T00:25:14;16.63;;;8.73;;
23680;SDS011;62915;50.832;4.462;2023-02-11T00:27:40;21.02;;;8.80;;
23680;SDS011;62915;50.832;4.462;2023-02-11T00:30:06;18.95;;;8.98;;
23680;SDS011;62915;50.832;4.462;2023-02-11T00:32:32;17.90;;;8.57;;
23680;SDS011;62915;50.832;4.462;2023-02-11T00:34:58;17.50;;;8.32;;
23680;SDS011;62915;50.832;4.462;2023-02-11T00:37:23;21.58;;;8.77;;
23680;SDS011;62915;50.832;4.462;2023-02-11T00:39:49;17.63;;;7.85;;
23680;SDS011;62915;50.832;4.462;2023-02-11T00:42:15;18.38;;;8.68;;
23680;SDS011;62915;50.832;4.462;2023-02-11T00:44:41;17.60;;;8.40;;
23680;SDS011;62915;50.832;4.462;2023-02-11T00:47:07;15.50;;;7.18;;
23680;SDS011;62915;50.832;4.462;2023-02-11T00:49:32;14.98;;;7.47;;
23680;SDS011;62915;50.832;4.462;2023-02-11T00:51:58;16.98;;;7.50;;
23680;SDS011;62915;50.832;4.462;2023-02-11T00:54:24;13.68;;;8.70;;
23680;SDS011;62915;50.832;4.462;2023-02-11T00:56:49;22.23;;;8.73;;
23680;SDS011;62915;50.832;4.462;2023-02-11T00:59:15;15.32;;;8.77;;
23680;SDS011;62915;50.832;4.462;2023-02-11T01:01:40;16.25;;;7.95;;
23680;SDS011;62915;50.832;4.462;2023-02-11T01:04:06;19.98;;;8.23;;
23680;SDS011;62915;50.832;4.462;2023-02-11T01:06:32;21.58;;;9.43;;
23680;SDS011;62915;50.832;4.462;2023-02-11T01:08:58;19.38;;;8.73;;
23680;SDS011;62915;50.832;4.462;2023-02-11T01:11:23;19.52;;;8.07;;
23680;SDS011;62915;50.832;4.462;2023-02-11T01:13:49;19.55;;;8.02;;
23680;SDS011;62915;50.832;4.462;2023-02-11T01:16:15;19.77;;;8.38;;
23680;SDS011;62915;50.832;4.462;2023-02-11T01:18:42;18.25;;;7.85;;
23680;SDS011;62915;50.832;4.462;2023-02-11T01:21:08;20.08;;;9.15;;
23680;SDS011;62915;50.832;4.462;2023-02-11T01:23:34;19.13;;;8.18;;
23680;SDS011;62915;50.832;4.462;2023-02-11T01:26:00;17.83;;;8.35;;
23680;SDS011;62915;50.832;4.462;2023-02-11T01:28:26;18.08;;;8.30;;
23680;SDS011;62915;50.832;4.462;2023-02-11T01:30:53;17.98;;;7.93;;
23680;SDS011;62915;50.832;4.462;2023-02-11T01:33:19;23.05;;;9.10;;
23680;SDS011;62915;50.832;4.462;2023-02-11T01:35:46;18.63;;;8.43;;
23680;SDS011;62915;50.832;4.462;2023-02-11T01:38:24;16.98;;;8.23;;
23680;SDS011;62915;50.832;4.462;2023-02-11T01:40:55;22.88;;;8.75;;
23680;SDS011;62915;50.832;4.462;2023-02-11T01:43:23;21.50;;;9.07;;
23680;SDS011;62915;50.832;4.462;2023-02-11T01:46:01;13.57;;;7.95;;
23680;SDS011;62915;50.832;4.462;2023-02-11T01:48:38;17.05;;;8.25;;
23680;SDS011;62915;50.832;4.462;2023-02-11T01:51:21;20.05;;;8.57;;
23680;SDS011;62915;50.832;4.462;2023-02-11T01:53:51;16.67;;;8.73;;
23680;SDS011;62915;50.832;4.462;2023-02-11T01:56:37;19.65;;;9.55;;
23680;SDS011;62915;50.832;4.462;2023-02-11T01:59:47;20.60;;;8.77;;
23680;SDS011;62915;50.832;4.462;2023-02-11T02:10:28;20.88;;;8.77;;
23680;SDS011;62915;50.832;4.462;2023-02-11T02:12:55;23.77;;;8.95;;
23680;SDS011;62915;50.832;4.462;2023-02-11T02:20:51;17.60;;;7.68;;
23680;SDS011;62915;50.832;4.462;2023-02-11T02:29:01;15.98;;;7.82;;
23680;SDS011;62915;50.832;4.462;2023-02-11T02:32:10;20.10;;;8.98;;
23680;SDS011;62915;50.832;4.462;2023-02-11T02:37:27;19.77;;;8.13;;
23680;SDS011;62915;50.832;4.462;2023-02-11T02:40:16;22.67;;;7.95;;
23680;SDS011;62915;50.832;4.462;2023-02-11T02:42:52;22.75;;;8.00;;
23680;SDS011;62915;50.832;4.462;2023-02-11T02:45:19;14.30;;;7.90;;
23680;SDS011;62915;50.832;4.462;2023-02-11T02:47:45;17.70;;;8.88;;
23680;SDS011;62915;50.832;4.462;2023-02-11T02:50:10;17.00;;;8.80;;
23680;SDS011;62915;50.832;4.462;2023-02-11T02:52:41;15.38;;;8.13;;
23680;SDS011;62915;50.832;4.462;2023-02-11T02:57:59;16.58;;;8.35;;
23680;SDS011;62915;50.832;4.462;2023-02-11T03:00:50;19.67;;;8.02;;
23680;SDS011;62915;50.832;4.462;2023-02-11T03:09:00;21.35;;;9.07;;
23680;SDS011;62915;50.832;4.462;2023-02-11T03:11:39;16.70;;;8.18;;
23680;SDS011;62915;50.832;4.462;2023-02-11T03:14:07;19.52;;;8.75;;
23680;SDS011;62915;50.832;4.462;2023-02-11T03:16:36;20.75;;;8.70;;
23680;SDS011;62915;50.832;4.462;2023-02-11T03:19:14;17.27;;;9.82;;
23680;SDS011;62915;50.832;4.462;2023-02-11T03:21:48;14.63;;;8.65;;
23680;SDS011;62915;50.832;4.462;2023-02-11T03:24:19;21.05;;;8.90;;
23680;SDS011;62915;50.832;4.462;2023-02-11T03:26:49;19.02;;;8.90;;
23680;SDS011;62915;50.832;4.462;2023-02-11T03:29:22;18.60;;;8.88;;
23680;SDS011;62915;50.832;4.462;2023-02-11T03:34:43;17.92;;;9.00;;
23680;SDS011;62915;50.832;4.462;2023-02-11T03:37:34;22.23;;;10.95;;
23680;SDS011;62915;50.832;4.462;2023-02-11T03:40:16;21.83;;;9.45;;
23680;SDS011;62915;50.832;4.462;2023-02-11T03:42:50;22.55;;;9.45;;
23680;SDS011;62915;50.832;4.462;2023-02-11T03:45:21;23.15;;;10.07;;
23680;SDS011;62915;50.832;4.462;2023-02-11T03:47:50;21.42;;;9.98;;
23680;SDS011;62915;50.832;4.462;2023-02-11T03:50:19;19.92;;;10.15;;
23680;SDS011;62915;50.832;4.462;2023-02-11T03:52:46;24.80;;;10.52;;
23680;SDS011;62915;50.832;4.462;2023-02-11T03:55:17;23.45;;;10.70;;
23680;SDS011;62915;50.832;4.462;2023-02-11T03:57:45;20.55;;;10.57;;
23680;SDS011;62915;50.832;4.462;2023-02-11T04:00:11;24.60;;;10.23;;
23680;SDS011;62915;50.832;4.462;2023-02-11T04:02:38;25.73;;;11.13;;
23680;SDS011;62915;50.832;4.462;2023-02-11T04:05:05;23.60;;;9.95;;
23680;SDS011;62915;50.832;4.462;2023-02-11T04:07:32;20.70;;;10.52;;
23680;SDS011;62915;50.832;4.462;2023-02-11T04:09:58;19.38;;;9.73;;
23680;SDS011;62915;50.832;4.462;2023-02-11T04:12:24;21.70;;;10.15;;
23680;SDS011;62915;50.832;4.462;2023-02-11T04:14:50;19.33;;;10.13;;
23680;SDS011;62915;50.832;4.462;2023-02-11T04:17:15;18.20;;;10.55;;
23680;SDS011;62915;50.832;4.462;2023-02-11T04:19:41;16.60;;;10.35;;
23680;SDS011;62915;50.832;4.462;2023-02-11T04:22:07;20.80;;;11.63;;
23680;SDS011;62915;50.832;4.462;2023-02-11T04:24:33;22.52;;;12.38;;
23680;SDS011;62915;50.832;4.462;2023-02-11T04:26:59;23.33;;;11.27;;
23680;SDS011;62915;50.832;4.462;2023-02-11T04:29:24;24.33;;;11.68;;
23680;SDS011;62915;50.832;4.462;2023-02-11T04:31:50;30.63;;;11.95;;
23680;SDS011;62915;50.832;4.462;2023-02-11T04:34:16;22.95;;;11.68;;
23680;SDS011;62915;50.832;4.462;2023-02-11T04:36:42;24.23;;;12.07;;
23680;SDS011;62915;50.832;4.462;2023-02-11T04:39:08;32.58;;;12.98;;
23680;SDS011;62915;50.832;4.462;2023-02-11T04:41:34;23.13;;;12.45;;
23680;SDS011;62915;50.832;4.462;2023-02-11T04:43:59;21.90;;;13.10;;
23680;SDS011;62915;50.832;4.462;2023-02-11T04:46:25;26.48;;;12.32;;
23680;SDS011;62915;50.832;4.462;2023-02-11T04:48:51;24.50;;;13.05;;
23680;SDS011;62915;50.832;4.462;2023-02-11T04:51:17;34.25;;;13.80;;
23680;SDS011;62915;50.832;4.462;2023-02-11T04:53:42;26.05;;;13.35;;
23680;SDS011;62915;50.832;4.462;2023-02-11T04:56:08;30.40;;;14.75;;
23680;SDS011;62915;50.832;4.462;2023-02-11T04:58:34;24.95;;;13.73;;
23680;SDS011;62915;50.832;4.462;2023-02-11T05:01:06;30.55;;;14.00;;
23680;SDS011;62915;50.832;4.462;2023-02-11T05:03:33;27.20;;;13.55;;
23680;SDS011;62915;50.832;4.462;2023-02-11T05:05:59;26.67;;;14.85;;
23680;SDS011;62915;50.832;4.462;2023-02-11T05:08:25;22.52;;;13.00;;
23680;SDS011;62915;50.832;4.462;2023-02-11T05:10:50;26.58;;;14.07;;
23680;SDS011;62915;50.832;4.462;2023-02-11T05:13:16;28.55;;;14.45;;
23680;SDS011;62915;50.832;4.462;2023-02-11T05:15:42;27.70;;;14.85;;
23680;SDS011;62915;50.832;4.462;2023-02-11T05:18:08;32.33;;;14.13;;
23680;SDS011;62915;50.832;4.462;2023-02-11T05:20:33;25.15;;;13.95;;
23680;SDS011;62915;50.832;4.462;2023-02-11T05:23:01;31.77;;;14.50;;
23680;SDS011;62915;50.832;4.462;2023-02-11T05:25:27;27.90;;;14.38;;
23680;SDS011;62915;50.832;4.462;2023-02-11T05:27:52;30.48;;;15.00;;
23680;SDS011;62915;50.832;4.462;2023-02-11T05:30:18;25.80;;;15.90;;
23680;SDS011;62915;50.832;4.462;2023-02-11T05:32:44;31.00;;;14.85;;
23680;SDS011;62915;50.832;4.462;2023-02-11T05:35:09;32.83;;;16.08;;
23680;SDS011;62915;50.832;4.462;2023-02-11T05:37:35;32.40;;;15.57;;
23680;SDS011;62915;50.832;4.462;2023-02-11T05:40:01;24.48;;;15.65;;
23680;SDS011;62915;50.832;4.462;2023-02-11T05:42:27;36.42;;;15.40;;
23680;SDS011;62915;50.832;4.462;2023-02-11T05:44:53;29.88;;;16.27;;
23680;SDS011;62915;50.832;4.462;2023-02-11T05:47:18;26.33;;;16.52;;
23680;SDS011;62915;50.832;4.462;2023-02-11T05:49:44;32.08;;;16.85;;
23680;SDS011;62915;50.832;4.462;2023-02-11T05:52:10;35.40;;;16.10;;
23680;SDS011;62915;50.832;4.462;2023-02-11T05:54:36;28.20;;;16.27;;
23680;SDS011;62915;50.832;4.462;2023-02-11T05:57:01;29.88;;;16.52;;
23680;SDS011;62915;50.832;4.462;2023-02-11T05:59:27;42.53;;;17.02;;
23680;SDS011;62915;50.832;4.462;2023-02-11T06:01:53;30.63;;;17.10;;
23680;SDS011;62915;50.832;4.462;2023-02-11T06:04:19;39.10;;;18.23;;
23680;SDS011;62915;50.832;4.462;2023-02-11T06:06:44;45.75;;;17.27;;
23680;SDS011;62915;50.832;4.462;2023-02-11T06:09:10;37.50;;;18.80;;
23680;SDS011;62915;50.832;4.462;2023-02-11T06:11:36;35.92;;;17.67;;
23680;SDS011;62915;50.832;4.462;2023-02-11T06:14:02;32.35;;;18.13;;
23680;SDS011;62915;50.832;4.462;2023-02-11T06:16:28;37.10;;;17.83;;
23680;SDS011;62915;50.832;4.462;2023-02-11T06:18:54;30.13;;;17.98;;
23680;SDS011;62915;50.832;4.462;2023-02-11T06:21:20;39.97;;;18.83;;
23680;SDS011;62915;50.832;4.462;2023-02-11T06:23:45;38.30;;;18.42;;
23680;SDS011;62915;50.832;4.462;2023-02-11T06:26:17;41.63;;;17.85;;
23680;SDS011;62915;50.832;4.462;2023-02-11T06:28:45;32.80;;;17.90;;
23680;SDS011;62915;50.832;4.462;2023-02-11T06:31:12;37.22;;;18.80;;
23680;SDS011;62915;50.832;4.462;2023-02-11T06:33:38;34.40;;;17.88;;
23680;SDS011;62915;50.832;4.462;2023-02-11T06:36:10;37.63;;;18.42;;
23680;SDS011;62915;50.832;4.462;2023-02-11T06:38:43;40.90;;;20.33;;
23680;SDS011;62915;50.832;4.462;2023-02-11T06:41:10;37.47;;;18.02;;
23680;SDS011;62915;50.832;4.462;2023-02-11T06:43:39;38.53;;;19.15;;
23680;SDS011;62915;50.832;4.462;2023-02-11T06:46:05;33.83;;;19.38;;
23680;SDS011;62915;50.832;4.462;2023-02-11T06:48:31;39.28;;;20.15;;
23680;SDS011;62915;50.832;4.462;2023-02-11T06:51:02;37.55;;;19.70;;
23680;SDS011;62915;50.832;4.462;2023-02-11T06:53:29;40.08;;;19.50;;
23680;SDS011;62915;50.832;4.462;2023-02-11T06:56:00;37.47;;;21.05;;
23680;SDS011;62915;50.832;4.462;2023-02-11T06:58:30;42.53;;;20.23;;
23680;SDS011;62915;50.832;4.462;2023-02-11T07:00:55;41.20;;;20.17;;
23680;SDS011;62915;50.832;4.462;2023-02-11T07:03:22;41.97;;;20.85;;
23680;SDS011;62915;50.832;4.462;2023-02-11T07:05:47;43.40;;;21.55;;
23680;SDS011;62915;50.832;4.462;2023-02-11T07:08:13;38.08;;;22.08;;
23680;SDS011;62915;50.832;4.462;2023-02-11T07:10:39;43.30;;;22.02;;
23680;SDS011;62915;50.832;4.462;2023-02-11T07:13:05;49.78;;;24.25;;
23680;SDS011;62915;50.832;4.462;2023-02-11T07:15:30;46.75;;;23.40;;
23680;SDS011;62915;50.832;4.462;2023-02-11T07:17:56;46.90;;;23.08;;
23680;SDS011;62915;50.832;4.462;2023-02-11T07:20:22;48.78;;;21.67;;
23680;SDS011;62915;50.832;4.462;2023-02-11T07:22:48;52.55;;;24.58;;
23680;SDS011;62915;50.832;4.462;2023-02-11T07:25:14;48.63;;;23.45;;
23680;SDS011;62915;50.832;4.462;2023-02-11T07:27:39;45.10;;;23.60;;
23680;SDS011;62915;50.832;4.462;2023-02-11T07:30:05;49.78;;;22.92;;
23680;SDS011;62915;50.832;4.462;2023-02-11T07:32:31;38.42;;;21.35;;
23680;SDS011;62915;50.832;4.462;2023-02-11T07:34:57;46.58;;;22.83;;
23680;SDS011;62915;50.832;4.462;2023-02-11T07:37:23;39.75;;;23.27;;
23680;SDS011;62915;50.832;4.462;2023-02-11T07:39:48;46.53;;;22.35;;
23680;SDS011;62915;50.832;4.462;2023-02-11T07:42:14;53.65;;;24.02;;
23680;SDS011;62915;50.832;4.462;2023-02-11T07:44:40;48.50;;;22.67;;
23680;SDS011;62915;50.832;4.462;2023-02-11T07:47:05;53.03;;;24.65;;
23680;SDS011;62915;50.832;4.462;2023-02-11T07:49:31;54.17;;;23.05;;
23680;SDS011;62915;50.832;4.462;2023-02-11T07:51:57;42.22;;;23.40;;
23680;SDS011;62915;50.832;4.462;2023-02-11T07:54:23;49.92;;;23.73;;
23680;SDS011;62915;50.832;4.462;2023-02-11T07:56:48;52.13;;;25.13;;
23680;SDS011;62915;50.832;4.462;2023-02-11T07:59:14;45.90;;;24.48;;
23680;SDS011;62915;50.832;4.462;2023-02-11T08:01:40;53.00;;;23.92;;
23680;SDS011;62915;50.832;4.462;2023-02-11T08:04:05;52.17;;;25.25;;
23680;SDS011;62915;50.832;4.462;2023-02-11T08:06:32;50.53;;;23.33;;
23680;SDS011;62915;50.832;4.462;2023-02-11T08:09:03;46.20;;;23.80;;
23680;SDS011;62915;50.832;4.462;2023-02-11T08:11:30;46.53;;;23.77;;
23680;SDS011;62915;50.832;4.462;2023-02-11T08:13:56;47.72;;;24.58;;
23680;SDS011;62915;50.832;4.462;2023-02-11T08:16:23;44.03;;;23.98;;
23680;SDS011;62915;50.832;4.462;2023-02-11T08:18:51;60.03;;;25.38;;
23680;SDS011;62915;50.832;4.462;2023-02-11T08:21:18;49.05;;;24.88;;
23680;SDS011;62915;50.832;4.462;2023-02-11T08:23:44;52.15;;;25.25;;
23680;SDS011;62915;50.832;4.462;2023-02-11T08:26:14;51.25;;;25.73;;
23680;SDS011;62915;50.832;4.462;2023-02-11T08:28:42;50.33;;;26.02;;
23680;SDS011;62915;50.832;4.462;2023-02-11T08:31:10;52.35;;;25.98;;
23680;SDS011;62915;50.832;4.462;2023-02-11T08:33:41;53.33;;;25.75;;
23680;SDS011;62915;50.832;4.462;2023-02-11T08:36:08;54.72;;;25.83;;
23680;SDS011;62915;50.832;4.462;2023-02-11T08:38:35;55.85;;;26.52;;
23680;SDS011;62915;50.832;4.462;2023-02-11T08:41:01;57.85;;;26.48;;
23680;SDS011;62915;50.832;4.462;2023-02-11T08:43:27;53.88;;;26.05;;
23680;SDS011;62915;50.832;4.462;2023-02-11T08:45:53;55.58;;;26.42;;
23680;SDS011;62915;50.832;4.462;2023-02-11T08:48:19;59.00;;;26.00;;
23680;SDS011;62915;50.832;4.462;2023-02-11T08:50:44;52.88;;;26.38;;
23680;SDS011;62915;50.832;4.462;2023-02-11T08:53:10;54.08;;;25.50;;
23680;SDS011;62915;50.832;4.462;2023-02-11T08:55:35;55.53;;;26.80;;
23680;SDS011;62915;50.832;4.462;2023-02-11T08:58:01;63.08;;;27.23;;
23680;SDS011;62915;50.832;4.462;2023-02-11T09:00:27;62.00;;;27.40;;
23680;SDS011;62915;50.832;4.462;2023-02-11T09:02:53;57.10;;;26.38;;
23680;SDS011;62915;50.832;4.462;2023-02-11T09:05:19;70.53;;;28.67;;
23680;SDS011;62915;50.832;4.462;2023-02-11T09:07:46;61.85;;;27.65;;
23680;SDS011;62915;50.832;4.462;2023-02-11T09:10:12;60.10;;;26.92;;
23680;SDS011;62915;50.832;4.462;2023-02-11T09:12:37;58.60;;;26.90;;
23680;SDS011;62915;50.832;4.462;2023-02-11T09:15:03;58.13;;;27.92;;
23680;SDS011;62915;50.832;4.462;2023-02-11T09:17:29;61.40;;;28.55;;
23680;SDS011;62915;50.832;4.462;2023-02-11T09:19:55;57.00;;;27.55;;
23680;SDS011;62915;50.832;4.462;2023-02-11T09:22:20;63.03;;;28.60;;
23680;SDS011;62915;50.832;4.462;2023-02-11T09:24:46;58.58;;;26.88;;
23680;SDS011;62915;50.832;4.462;2023-02-11T09:27:12;55.50;;;27.38;;
23680;SDS011;62915;50.832;4.462;2023-02-11T09:29:37;58.88;;;27.98;;
23680;SDS011;62915;50.832;4.462;2023-02-11T09:32:03;62.10;;;27.33;;
23680;SDS011;62915;50.832;4.462;2023-02-11T09:34:29;60.03;;;26.70;;
23680;SDS011;62915;50.832;4.462;2023-02-11T09:36:54;63.38;;;29.60;;
23680;SDS011;62915;50.832;4.462;2023-02-11T09:39:20;58.20;;;28.02;;
23680;SDS011;62915;50.832;4.462;2023-02-11T09:42:02;66.38;;;28.52;;
23680;SDS011;62915;50.832;4.462;2023-02-11T09:44:33;73.25;;;31.13;;
23680;SDS011;62915;50.832;4.462;2023-02-11T09:47:02;65.57;;;29.70;;
23680;SDS011;62915;50.832;4.462;2023-02-11T09:49:38;71.90;;;31.40;;
23680;SDS011;62915;50.832;4.462;2023-02-11T09:55:20;69.13;;;28.70;;
23680;SDS011;62915;50.832;4.462;2023-02-11T09:57:52;71.88;;;30.45;;
23680;SDS011;62915;50.832;4.462;2023-02-11T10:00:27;64.80;;;29.67;;
23680;SDS011;62915;50.832;4.462;2023-02-11T10:22:39;66.03;;;29.73;;
23680;SDS011;62915;50.832;4.462;2023-02-11T10:25:22;68.18;;;30.88;;
23680;SDS011;62915;50.832;4.462;2023-02-11T10:27:54;68.78;;;29.33;;
23680;SDS011;62915;50.832;4.462;2023-02-11T10:30:30;61.75;;;30.83;;
23680;SDS011;62915;50.832;4.462;2023-02-11T10:35:28;63.42;;;30.02;;
23680;SDS011;62915;50.832;4.462;2023-02-11T10:37:55;67.82;;;31.02;;
23680;SDS011;62915;50.832;4.462;2023-02-11T10:40:22;72.13;;;31.13;;
23680;SDS011;62915;50.832;4.462;2023-02-11T10:42:51;65.57;;;31.27;;
23680;SDS011;62915;50.832;4.462;2023-02-11T10:45:38;61.63;;;30.85;;
23680;SDS011;62915;50.832;4.462;2023-02-11T10:51:15;57.58;;;28.42;;
23680;SDS011;62915;50.832;4.462;2023-02-11T10:53:42;69.25;;;32.30;;
23680;SDS011;62915;50.832;4.462;2023-02-11T10:56:10;64.20;;;29.48;;
23680;SDS011;62915;50.832;4.462;2023-02-11T10:58:54;63.03;;;31.13;;
23680;SDS011;62915;50.832;4.462;2023-02-11T11:01:38;66.13;;;31.30;;
23680;SDS011;62915;50.832;4.462;2023-02-11T11:06:54;63.25;;;31.80;;
23680;SDS011;62915;50.832;4.462;2023-02-11T11:09:29;65.75;;;31.70;;
23680;SDS011;62915;50.832;4.462;2023-02-11T11:14:58;66.30;;;32.08;;
23680;SDS011;62915;50.832;4.462;2023-02-11T11:17:27;71.75;;;33.38;;
23680;SDS011;62915;50.832;4.462;2023-02-11T11:19:55;65.28;;;33.28;;
23680;SDS011;62915;50.832;4.462;2023-02-11T11:22:40;70.00;;;32.55;;
23680;SDS011;62915;50.832;4.462;2023-02-11T11:25:26;74.45;;;34.22;;
23680;SDS011;62915;50.832;4.462;2023-02-11T11:27:55;63.67;;;32.40;;
23680;SDS011;62915;50.832;4.462;2023-02-11T11:30:25;68.40;;;34.25;;
23680;SDS011;62915;50.832;4.462;2023-02-11T11:35:24;67.80;;;32.05;;
23680;SDS011;62915;50.832;4.462;2023-02-11T11:37:53;78.25;;;33.78;;
23680;SDS011;62915;50.832;4.462;2023-02-11T11:40:23;64.90;;;32.80;;
23680;SDS011;62915;50.832;4.462;2023-02-11T11:45:36;68.03;;;32.80;;
23680;SDS011;62915;50.832;4.462;2023-02-11T11:48:45;79.55;;;33.90;;
23680;SDS011;62915;50.832;4.462;2023-02-11T11:50:59;70.72;;;32.20;;
23680;SDS011;62915;50.832;4.462;2023-02-11T11:53:30;62.67;;;33.65;;
23680;SDS011;62915;50.832;4.462;2023-02-11T11:56:21;73.00;;;34.67;;
23680;SDS011;62915;50.832;4.462;2023-02-11T11:58:50;73.38;;;33.10;;
23680;SDS011;62915;50.832;4.462;2023-02-11T12:04:14;66.15;;;33.33;;
23680;SDS011;62915;50.832;4.462;2023-02-11T12:10:03;68.80;;;33.25;;
23680;SDS011;62915;50.832;4.462;2023-02-11T12:12:56;72.25;;;32.80;;
23680;SDS011;62915;50.832;4.462;2023-02-11T12:18:35;70.85;;;33.55;;
23680;SDS011;62915;50.832;4.462;2023-02-11T12:24:01;74.22;;;33.85;;
23680;SDS011;62915;50.832;4.462;2023-02-11T12:26:55;67.57;;;33.83;;
23680;SDS011;62915;50.832;4.462;2023-02-11T12:32:12;68.57;;;34.50;;
23680;SDS011;62915;50.832;4.462;2023-02-11T12:40:39;68.25;;;33.72;;
23680;SDS011;62915;50.832;4.462;2023-02-11T12:43:35;71.43;;;35.13;;
23680;SDS011;62915;50.832;4.462;2023-02-11T12:51:29;68.25;;;34.58;;
23680;SDS011;62915;50.832;4.462;2023-02-11T12:54:12;66.53;;;36.03;;
23680;SDS011;62915;50.832;4.462;2023-02-11T12:56:50;72.32;;;34.90;;
23680;SDS011;62915;50.832;4.462;2023-02-11T13:02:19;72.20;;;35.35;;
23680;SDS011;62915;50.832;4.462;2023-02-11T13:04:59;72.00;;;34.67;;
23680;SDS011;62915;50.832;4.462;2023-02-11T13:07:45;66.60;;;34.83;;
23680;SDS011;62915;50.832;4.462;2023-02-11T13:13:01;72.68;;;35.05;;
23680;SDS011;62915;50.832;4.462;2023-02-11T13:15:51;77.20;;;34.67;;
23680;SDS011;62915;50.832;4.462;2023-02-11T13:23:43;70.30;;;34.85;;
23680;SDS011;62915;50.832;4.462;2023-02-11T13:26:20;70.47;;;33.95;;
23680;SDS011;62915;50.832;4.462;2023-02-11T13:28:50;67.47;;;34.45;;
23680;SDS011;62915;50.832;4.462;2023-02-11T13:31:37;72.78;;;34.67;;
23680;SDS011;62915;50.832;4.462;2023-02-11T13:34:03;74.80;;;35.53;;
23680;SDS011;62915;50.832;4.462;2023-02-11T13:39:58;67.90;;;34.88;;
23680;SDS011;62915;50.832;4.462;2023-02-11T13:42:26;69.65;;;34.65;;
23680;SDS011;62915;50.832;4.462;2023-02-11T13:44:53;70.45;;;34.38;;
23680;SDS011;62915;50.832;4.462;2023-02-11T13:47:26;74.57;;;33.70;;
23680;SDS011;62915;50.832;4.462;2023-02-11T13:49:56;68.22;;;35.08;;
23680;SDS011;62915;50.832;4.462;2023-02-11T13:52:29;68.07;;;36.10;;
23680;SDS011;62915;50.832;4.462;2023-02-11T13:57:37;71.90;;;34.75;;
23680;SDS011;62915;50.832;4.462;2023-02-11T14:04:04;72.72;;;35.50;;
23680;SDS011;62915;50.832;4.462;2023-02-11T14:11:43;72.88;;;36.75;;
23680;SDS011;62915;50.832;4.462;2023-02-11T14:14:34;72.50;;;35.38;;
23680;SDS011;62915;50.832;4.462;2023-02-11T14:17:25;66.22;;;35.60;;
23680;SDS011;62915;50.832;4.462;2023-02-11T14:19:52;72.38;;;36.63;;
23680;SDS011;62915;50.832;4.462;2023-02-11T14:22:28;62.55;;;35.10;;
23680;SDS011;62915;50.832;4.462;2023-02-11T14:25:11;73.88;;;37.13;;
23680;SDS011;62915;50.832;4.462;2023-02-11T14:33:59;73.57;;;35.33;;
23680;SDS011;62915;50.832;4.462;2023-02-11T14:36:34;68.45;;;35.40;;
23680;SDS011;62915;50.832;4.462;2023-02-11T14:42:04;74.80;;;36.90;;
23680;SDS011;62915;50.832;4.462;2023-02-11T14:44:37;75.47;;;36.85;;
23680;SDS011;62915;50.832;4.462;2023-02-11T14:47:03;74.60;;;38.42;;
23680;SDS011;62915;50.832;4.462;2023-02-11T14:49:30;73.90;;;37.75;;
23680;SDS011;62915;50.832;4.462;2023-02-11T14:54:44;78.78;;;39.50;;
23680;SDS011;62915;50.832;4.462;2023-02-11T14:57:15;86.15;;;39.13;;
23680;SDS011;62915;50.832;4.462;2023-02-11T14:59:58;86.90;;;39.92;;
23680;SDS011;62915;50.832;4.462;2023-02-11T15:02:44;75.03;;;37.78;;
23680;SDS011;62915;50.832;4.462;2023-02-11T15:05:21;78.05;;;38.58;;
23680;SDS011;62915;50.832;4.462;2023-02-11T15:08:11;72.43;;;37.65;;
23680;SDS011;62915;50.832;4.462;2023-02-11T15:10:42;72.03;;;38.33;;
23680;SDS011;62915;50.832;4.462;2023-02-11T15:13:13;71.97;;;38.33;;
23680;SDS011;62915;50.832;4.462;2023-02-11T15:15:45;70.85;;;38.20;;
23680;SDS011;62915;50.832;4.462;2023-02-11T15:18:18;77.88;;;40.33;;
23680;SDS011;62915;50.832;4.462;2023-02-11T15:23:20;75.15;;;37.88;;
23680;SDS011;62915;50.832;4.462;2023-02-11T15:25:48;81.22;;;39.03;;
23680;SDS011;62915;50.832;4.462;2023-02-11T15:28:22;85.43;;;40.88;;
23680;SDS011;62915;50.832;4.462;2023-02-11T15:30:58;69.43;;;38.40;;
23680;SDS011;62915;50.832;4.462;2023-02-11T15:33:29;86.22;;;41.92;;
23680;SDS011;62915;50.832;4.462;2023-02-11T15:35:57;81.43;;;40.00;;
23680;SDS011;62915;50.832;4.462;2023-02-11T15:38:23;84.75;;;39.58;;
23680;SDS011;62915;50.832;4.462;2023-02-11T15:40:59;83.40;;;39.35;;
23680;SDS011;62915;50.832;4.462;2023-02-11T15:46:07;78.95;;;41.08;;
23680;SDS011;62915;50.832;4.462;2023-02-11T15:48:42;81.43;;;40.25;;
23680;SDS011;62915;50.832;4.462;2023-02-11T15:51:27;73.03;;;40.63;;
23680;SDS011;62915;50.832;4.462;2023-02-11T15:54:03;75.47;;;39.88;;
23680;SDS011;62915;50.832;4.462;2023-02-11T15:56:38;77.97;;;40.13;;
23680;SDS011;62915;50.832;4.462;2023-02-11T16:04:59;78.55;;;39.47;;
23680;SDS011;62915;50.832;4.462;2023-02-11T16:10:27;81.25;;;40.40;;
23680;SDS011;62915;50.832;4.462;2023-02-11T16:20:54;82.40;;;41.60;;
23680;SDS011;62915;50.832;4.462;2023-02-11T16:23:22;84.10;;;40.88;;
23680;SDS011;62915;50.832;4.462;2023-02-11T16:25:52;81.07;;;41.85;;
23680;SDS011;62915;50.832;4.462;2023-02-11T16:28:22;83.18;;;43.45;;
23680;SDS011;62915;50.832;4.462;2023-02-11T16:30:50;76.65;;;42.65;;
23680;SDS011;62915;50.832;4.462;2023-02-11T16:33:17;81.35;;;42.03;;
23680;SDS011;62915;50.832;4.462;2023-02-11T16:35:43;77.50;;;40.40;;
23680;SDS011;62915;50.832;4.462;2023-02-11T16:38:11;85.50;;;41.22;;
23680;SDS011;62915;50.832;4.462;2023-02-11T16:40:37;92.43;;;43.97;;
23680;SDS011;62915;50.832;4.462;2023-02-11T16:43:05;74.05;;;39.95;;
23680;SDS011;62915;50.832;4.462;2023-02-11T16:45:30;76.05;;;41.45;;
23680;SDS011;62915;50.832;4.462;2023-02-11T16:47:59;69.38;;;41.33;;
23680;SDS011;62915;50.832;4.462;2023-02-11T16:50:26;81.00;;;42.95;;
23680;SDS011;62915;50.832;4.462;2023-02-11T16:52:52;77.38;;;41.85;;
23680;SDS011;62915;50.832;4.462;2023-02-11T16:55:18;84.72;;;45.33;;
23680;SDS011;62915;50.832;4.462;2023-02-11T16:57:43;77.05;;;42.45;;
23680;SDS011;62915;50.832;4.462;2023-02-11T17:00:09;80.07;;;43.65;;
23680;SDS011;62915;50.832;4.462;2023-02-11T17:02:39;81.45;;;43.65;;
23680;SDS011;62915;50.832;4.462;2023-02-11T17:05:06;88.20;;;42.83;;
23680;SDS011;62915;50.832;4.462;2023-02-11T17:07:39;82.35;;;42.65;;
23680;SDS011;62915;50.832;4.462;2023-02-11T17:10:14;83.32;;;42.65;;
23680;SDS011;62915;50.832;4.462;2023-02-11T17:12:45;77.95;;;42.50;;
23680;SDS011;62915;50.832;4.462;2023-02-11T17:15:12;84.18;;;42.50;;
23680;SDS011;62915;50.832;4.462;2023-02-11T17:17:37;76.10;;;43.13;;